sensor_id;sensor_type;location;lat;lon;timestamp;pressure;altitude;pressure_sealevel;temperature;humidity
11808;BME280;5961;42.640;23.380;2023-07-13T00:00:30;94342.28;;;24.96;53.08
11808;BME280;5961;42.640;23.380;2023-07-13T00:02:57;94327.94;;;24.96;51.83
11808;BME280;5961;42.640;23.380;2023-07-13T00:05:25;94342.41;;;25.13;52.74
11808;BME280;5961;42.640;23.380;2023-07-13T00:07:53;94345.75;;;25.20;51.31
11808;BME280;5961;42.640;23.380;2023-07-13T00:10:20;94357.31;;;25.24;52.00
11808;BME280;5961;42.640;23.380;2023-07-13T00:12:47;94342.75;;;25.34;51.23
11808;BME280;5961;42.640;23.380;2023-07-13T00:15:15;94344.97;;;25.39;50.17
11808;BME280;5961;42.640;23.380;2023-07-13T00:17:46;94340.97;;;25.47;50.80
11808;BME280;5961;42.640;23.380;2023-07-13T00:20:13;94340.81;;;25.54;51.22
11808;BME280;5961;42.640;23.380;2023-07-13T00:22:41;94338.47;;;25.56;51.75
11808;BME280;5961;42.640;23.380;2023-07-13T00:25:09;94336.69;;;25.66;52.79
11808;BME280;5961;42.640;23.380;2023-07-13T00:27:36;94345.50;;;25.74;53.92
11808;BME280;5961;42.640;23.380;2023-07-13T00:30:03;94343.41;;;25.61;55.75
11808;BME280;5961;42.640;23.380;2023-07-13T00:32:30;94331.38;;;25.20;57.68
11808;BME280;5961;42.640;23.380;2023-07-13T00:34:57;94333.13;;;25.10;57.79
11808;BME280;5961;42.640;23.380;2023-07-13T00:37:25;94336.22;;;24.89;58.64
11808;BME280;5961;42.640;23.380;2023-07-13T00:39:53;94322.31;;;24.60;60.12
11808;BME280;5961;42.640;23.380;2023-07-13T00:42:20;94321.69;;;24.52;60.99
11808;BME280;5961;42.640;23.380;2023-07-13T00:47:56;94331.97;;;24.15;63.38
11808;BME280;5961;42.640;23.380;2023-07-13T00:50:24;94325.59;;;23.98;63.99
11808;BME280;5961;42.640;23.380;2023-07-13T00:52:53;94279.59;;;23.61;63.96
11808;BME280;5961;42.640;23.380;2023-07-13T00:55:24;94318.88;;;23.79;64.21
11808;BME280;5961;42.640;23.380;2023-07-13T00:57:51;94322.72;;;23.82;65.08
11808;BME280;5961;42.640;23.380;2023-07-13T01:00:20;94308.84;;;23.76;65.27
11808;BME280;5961;42.640;23.380;2023-07-13T01:02:48;94316.84;;;23.87;65.03
11808;BME280;5961;42.640;23.380;2023-07-13T01:05:17;94308.25;;;23.92;64.66
11808;BME280;5961;42.640;23.380;2023-07-13T01:07:44;94321.66;;;24.02;64.63
11808;BME280;5961;42.640;23.380;2023-07-13T01:10:12;94313.31;;;23.90;63.71
11808;BME280;5961;42.640;23.380;2023-07-13T01:12:41;94309.41;;;23.91;63.86
11808;BME280;5961;42.640;23.380;2023-07-13T01:15:35;94309.38;;;23.94;61.04
11808;BME280;5961;42.640;23.380;2023-07-13T01:18:03;94310.75;;;24.06;61.15
11808;BME280;5961;42.640;23.380;2023-07-13T01:20:30;94318.34;;;24.18;62.59
11808;BME280;5961;42.640;23.380;2023-07-13T01:22:58;94305.13;;;24.20;62.64
11808;BME280;5961;42.640;23.380;2023-07-13T01:25:25;94315.78;;;24.34;62.09
11808;BME280;5961;42.640;23.380;2023-07-13T01:27:51;94312.56;;;24.39;61.91
11808;BME280;5961;42.640;23.380;2023-07-13T01:30:18;94302.53;;;24.36;62.21
11808;BME280;5961;42.640;23.380;2023-07-13T01:32:45;94313.03;;;24.11;62.39
11808;BME280;5961;42.640;23.380;2023-07-13T01:35:12;94306.13;;;24.03;62.55
11808;BME280;5961;42.640;23.380;2023-07-13T01:37:39;94308.59;;;23.94;63.26
11808;BME280;5961;42.640;23.380;2023-07-13T01:40:08;94309.53;;;23.84;63.85
11808;BME280;5961;42.640;23.380;2023-07-13T01:42:36;94298.28;;;23.55;64.66
11808;BME280;5961;42.640;23.380;2023-07-13T01:45:04;94320.34;;;23.57;65.33
11808;BME280;5961;42.640;23.380;2023-07-13T01:47:31;94314.31;;;23.42;66.24
11808;BME280;5961;42.640;23.380;2023-07-13T01:49:58;94306.00;;;23.26;67.19
11808;BME280;5961;42.640;23.380;2023-07-13T01:52:24;94307.22;;;23.18;68.34
11808;BME280;5961;42.640;23.380;2023-07-13T01:54:51;94297.66;;;23.10;69.10
11808;BME280;5961;42.640;23.380;2023-07-13T01:57:19;94300.00;;;23.08;69.26
11808;BME280;5961;42.640;23.380;2023-07-13T01:59:46;94304.00;;;22.97;69.56
11808;BME280;5961;42.640;23.380;2023-07-13T02:02:13;94293.63;;;22.88;70.01
11808;BME280;5961;42.640;23.380;2023-07-13T02:04:40;94305.22;;;22.92;70.24
11808;BME280;5961;42.640;23.380;2023-07-13T02:07:07;94299.97;;;22.74;71.27
11808;BME280;5961;42.640;23.380;2023-07-13T02:09:34;94305.09;;;22.65;71.73
11808;BME280;5961;42.640;23.380;2023-07-13T02:12:01;94301.03;;;22.39;72.45
11808;BME280;5961;42.640;23.380;2023-07-13T02:14:29;94301.91;;;22.29;73.56
11808;BME280;5961;42.640;23.380;2023-07-13T02:16:56;94310.53;;;22.17;74.07
11808;BME280;5961;42.640;23.380;2023-07-13T02:19:23;94302.44;;;22.10;74.71
11808;BME280;5961;42.640;23.380;2023-07-13T02:21:50;94308.66;;;22.07;74.87
11808;BME280;5961;42.640;23.380;2023-07-13T02:24:17;94251.31;;;21.64;74.89
11808;BME280;5961;42.640;23.380;2023-07-13T02:26:46;94302.53;;;22.00;75.48
11808;BME280;5961;42.640;23.380;2023-07-13T02:29:13;94304.50;;;21.92;75.25
11808;BME280;5961;42.640;23.380;2023-07-13T02:31:41;94308.78;;;21.82;75.14
11808;BME280;5961;42.640;23.380;2023-07-13T02:34:08;94321.59;;;21.75;75.50
11808;BME280;5961;42.640;23.380;2023-07-13T02:36:35;94315.75;;;21.80;75.34
11808;BME280;5961;42.640;23.380;2023-07-13T02:39:04;94322.28;;;21.86;75.38
11808;BME280;5961;42.640;23.380;2023-07-13T02:41:30;94319.59;;;21.86;75.37
11808;BME280;5961;42.640;23.380;2023-07-13T02:43:58;94319.22;;;21.87;74.52
11808;BME280;5961;42.640;23.380;2023-07-13T02:46:29;94316.13;;;21.89;73.42
11808;BME280;5961;42.640;23.380;2023-07-13T02:48:57;94313.78;;;21.91;73.78
11808;BME280;5961;42.640;23.380;2023-07-13T02:51:23;94315.72;;;21.87;74.38
11808;BME280;5961;42.640;23.380;2023-07-13T02:53:50;94309.88;;;21.99;73.75
11808;BME280;5961;42.640;23.380;2023-07-13T02:56:17;94327.59;;;22.07;73.36
11808;BME280;5961;42.640;23.380;2023-07-13T02:58:44;94327.56;;;22.14;73.63
11808;BME280;5961;42.640;23.380;2023-07-13T03:01:11;94310.53;;;22.14;73.27
11808;BME280;5961;42.640;23.380;2023-07-13T03:03:38;94316.66;;;22.21;73.13
11808;BME280;5961;42.640;23.380;2023-07-13T03:06:06;94315.97;;;22.10;73.19
11808;BME280;5961;42.640;23.380;2023-07-13T03:08:33;94323.63;;;22.22;72.89
11808;BME280;5961;42.640;23.380;2023-07-13T03:11:00;94320.13;;;22.25;73.09
11808;BME280;5961;42.640;23.380;2023-07-13T03:13:27;94329.84;;;22.19;73.36
11808;BME280;5961;42.640;23.380;2023-07-13T03:15:54;94319.81;;;22.16;73.43
11808;BME280;5961;42.640;23.380;2023-07-13T03:18:20;94292.09;;;21.98;73.49
11808;BME280;5961;42.640;23.380;2023-07-13T03:20:50;94327.44;;;22.28;73.59
11808;BME280;5961;42.640;23.380;2023-07-13T03:23:18;94328.22;;;22.29;73.86
11808;BME280;5961;42.640;23.380;2023-07-13T03:25:45;94330.56;;;22.27;74.09
11808;BME280;5961;42.640;23.380;2023-07-13T03:28:14;94327.09;;;22.23;74.35
11808;BME280;5961;42.640;23.380;2023-07-13T03:30:41;94333.66;;;22.25;74.23
11808;BME280;5961;42.640;23.380;2023-07-13T03:33:08;94331.38;;;22.20;74.44
11808;BME280;5961;42.640;23.380;2023-07-13T03:35:35;94333.69;;;22.22;74.54
11808;BME280;5961;42.640;23.380;2023-07-13T03:38:02;94325.22;;;22.16;74.96
11808;BME280;5961;42.640;23.380;2023-07-13T03:40:30;94342.22;;;22.17;75.08
11808;BME280;5961;42.640;23.380;2023-07-13T03:42:56;94334.13;;;22.13;75.47
11808;BME280;5961;42.640;23.380;2023-07-13T03:45:23;94329.88;;;22.12;75.69
11808;BME280;5961;42.640;23.380;2023-07-13T03:47:50;94336.84;;;22.10;76.18
11808;BME280;5961;42.640;23.380;2023-07-13T03:50:16;94327.59;;;22.07;76.17
11808;BME280;5961;42.640;23.380;2023-07-13T03:52:43;94323.75;;;22.08;76.55
11808;BME280;5961;42.640;23.380;2023-07-13T03:55:10;94326.09;;;22.03;76.86
11808;BME280;5961;42.640;23.380;2023-07-13T03:57:38;94331.47;;;22.06;76.77
11808;BME280;5961;42.640;23.380;2023-07-13T04:00:06;94336.06;;;22.13;76.21
11808;BME280;5961;42.640;23.380;2023-07-13T04:02:34;94330.19;;;22.21;75.86
11808;BME280;5961;42.640;23.380;2023-07-13T04:05:01;94333.59;;;22.32;73.94
11808;BME280;5961;42.640;23.380;2023-07-13T04:07:28;94340.44;;;22.48;73.08
11808;BME280;5961;42.640;23.380;2023-07-13T04:09:54;94339.56;;;22.58;73.13
11808;BME280;5961;42.640;23.380;2023-07-13T04:12:21;94338.69;;;22.75;72.49
11808;BME280;5961;42.640;23.380;2023-07-13T04:14:49;94334.69;;;22.86;72.11
11808;BME280;5961;42.640;23.380;2023-07-13T04:17:16;94340.38;;;22.99;72.49
11808;BME280;5961;42.640;23.380;2023-07-13T04:19:43;94334.44;;;23.11;72.54
11808;BME280;5961;42.640;23.380;2023-07-13T04:22:10;94342.06;;;23.23;71.74
11808;BME280;5961;42.640;23.380;2023-07-13T04:24:36;94346.56;;;23.33;71.40
11808;BME280;5961;42.640;23.380;2023-07-13T04:27:04;94348.44;;;23.43;71.29
11808;BME280;5961;42.640;23.380;2023-07-13T04:29:31;94351.00;;;23.54;71.04
11808;BME280;5961;42.640;23.380;2023-07-13T04:31:59;94354.72;;;23.67;71.21
11808;BME280;5961;42.640;23.380;2023-07-13T04:34:25;94353.41;;;23.79;71.23
11808;BME280;5961;42.640;23.380;2023-07-13T04:36:52;94347.47;;;23.87;70.90
11808;BME280;5961;42.640;23.380;2023-07-13T04:39:19;94357.50;;;23.90;71.48
11808;BME280;5961;42.640;23.380;2023-07-13T04:41:46;94353.66;;;23.88;71.55
11808;BME280;5961;42.640;23.380;2023-07-13T04:44:13;94352.16;;;23.87;71.03
11808;BME280;5961;42.640;23.380;2023-07-13T04:46:39;94365.59;;;23.94;70.41
11808;BME280;5961;42.640;23.380;2023-07-13T04:49:07;94362.88;;;23.94;70.35
11808;BME280;5961;42.640;23.380;2023-07-13T04:51:33;94369.13;;;23.91;70.79
11808;BME280;5961;42.640;23.380;2023-07-13T04:54:00;94363.00;;;23.87;70.43
11808;BME280;5961;42.640;23.380;2023-07-13T04:56:27;94366.84;;;23.89;70.61
11808;BME280;5961;42.640;23.380;2023-07-13T04:58:53;94358.50;;;23.73;70.66
11808;BME280;5961;42.640;23.380;2023-07-13T05:01:21;94367.78;;;23.76;71.27
11808;BME280;5961;42.640;23.380;2023-07-13T05:03:48;94388.63;;;23.82;71.22
11808;BME280;5961;42.640;23.380;2023-07-13T05:06:16;94373.25;;;23.72;70.56
11808;BME280;5961;42.640;23.380;2023-07-13T05:08:42;94385.63;;;23.77;70.90
11808;BME280;5961;42.640;23.380;2023-07-13T05:11:09;94379.84;;;23.75;71.10
11808;BME280;5961;42.640;23.380;2023-07-13T05:13:36;94377.13;;;23.75;70.90
11808;BME280;5961;42.640;23.380;2023-07-13T05:16:04;94382.44;;;23.82;71.77
11808;BME280;5961;42.640;23.380;2023-07-13T05:18:33;94392.44;;;23.88;71.97
11808;BME280;5961;42.640;23.380;2023-07-13T05:21:02;94391.66;;;23.88;72.43
11808;BME280;5961;42.640;23.380;2023-07-13T05:23:31;94393.22;;;23.89;72.34
11808;BME280;5961;42.640;23.380;2023-07-13T05:25:59;94391.38;;;24.09;72.41
11808;BME280;5961;42.640;23.380;2023-07-13T05:28:26;94393.56;;;24.21;72.06
11808;BME280;5961;42.640;23.380;2023-07-13T05:30:54;94380.41;;;24.20;71.76
11808;BME280;5961;42.640;23.380;2023-07-13T05:33:20;94388.28;;;24.37;71.46
11808;BME280;5961;42.640;23.380;2023-07-13T05:35:47;94396.59;;;24.53;71.14
11808;BME280;5961;42.640;23.380;2023-07-13T05:38:14;94397.53;;;24.67;70.98
11808;BME280;5961;42.640;23.380;2023-07-13T05:40:43;94395.88;;;24.73;70.84
11808;BME280;5961;42.640;23.380;2023-07-13T05:43:11;94381.94;;;24.71;70.56
11808;BME280;5961;42.640;23.380;2023-07-13T05:45:38;94402.66;;;24.88;69.61
11808;BME280;5961;42.640;23.380;2023-07-13T05:48:05;94401.72;;;24.98;70.09
11808;BME280;5961;42.640;23.380;2023-07-13T05:50:31;94394.34;;;24.98;69.47
11808;BME280;5961;42.640;23.380;2023-07-13T05:52:58;94404.19;;;25.12;69.29
11808;BME280;5961;42.640;23.380;2023-07-13T05:55:25;94401.00;;;25.17;69.22
11808;BME280;5961;42.640;23.380;2023-07-13T05:57:53;94403.22;;;25.22;68.63
11808;BME280;5961;42.640;23.380;2023-07-13T06:00:20;94395.06;;;25.22;68.66
11808;BME280;5961;42.640;23.380;2023-07-13T06:02:47;94399.47;;;25.36;68.49
11808;BME280;5961;42.640;23.380;2023-07-13T06:05:13;94397.78;;;25.42;68.54
11808;BME280;5961;42.640;23.380;2023-07-13T06:07:40;94400.03;;;25.50;68.30
11808;BME280;5961;42.640;23.380;2023-07-13T06:10:08;94365.56;;;25.40;67.96
11808;BME280;5961;42.640;23.380;2023-07-13T06:12:35;94388.00;;;25.68;67.92
11808;BME280;5961;42.640;23.380;2023-07-13T06:15:04;94394.84;;;25.76;67.46
11808;BME280;5961;42.640;23.380;2023-07-13T06:17:30;94400.91;;;25.83;67.36
11808;BME280;5961;42.640;23.380;2023-07-13T06:19:57;94399.97;;;25.90;68.02
11808;BME280;5961;42.640;23.380;2023-07-13T06:22:24;94400.53;;;26.01;68.91
11808;BME280;5961;42.640;23.380;2023-07-13T06:24:51;94401.91;;;26.09;69.15
11808;BME280;5961;42.640;23.380;2023-07-13T06:27:18;94401.03;;;26.15;69.20
11808;BME280;5961;42.640;23.380;2023-07-13T06:29:45;94397.78;;;26.21;68.05
11808;BME280;5961;42.640;23.380;2023-07-13T06:32:13;94401.16;;;26.28;66.92
11808;BME280;5961;42.640;23.380;2023-07-13T06:34:39;94394.41;;;26.33;66.98
11808;BME280;5961;42.640;23.380;2023-07-13T06:37:06;94399.78;;;26.36;67.02
11808;BME280;5961;42.640;23.380;2023-07-13T06:39:33;94401.91;;;26.45;66.35
11808;BME280;5961;42.640;23.380;2023-07-13T06:41:59;94408.47;;;26.47;65.74
11808;BME280;5961;42.640;23.380;2023-07-13T06:44:26;94400.91;;;26.55;65.75
11808;BME280;5961;42.640;23.380;2023-07-13T06:46:53;94400.06;;;26.58;64.38
11808;BME280;5961;42.640;23.380;2023-07-13T06:49:21;94403.38;;;26.65;62.49
11808;BME280;5961;42.640;23.380;2023-07-13T06:51:48;94372.19;;;26.50;62.76
11808;BME280;5961;42.640;23.380;2023-07-13T06:54:14;94397.25;;;26.78;62.57
11808;BME280;5961;42.640;23.380;2023-07-13T06:56:41;94397.97;;;26.82;62.16
11808;BME280;5961;42.640;23.380;2023-07-13T06:59:08;94392.34;;;26.89;62.35
11808;BME280;5961;42.640;23.380;2023-07-13T07:01:35;94400.00;;;26.94;62.42
11808;BME280;5961;42.640;23.380;2023-07-13T07:04:03;94392.84;;;27.00;62.47
11808;BME280;5961;42.640;23.380;2023-07-13T07:06:31;94392.31;;;27.05;62.25
11808;BME280;5961;42.640;23.380;2023-07-13T07:08:57;94391.38;;;27.11;61.62
11808;BME280;5961;42.640;23.380;2023-07-13T07:11:25;94395.56;;;27.16;60.81
11808;BME280;5961;42.640;23.380;2023-07-13T07:13:52;94407.91;;;27.20;61.18
11808;BME280;5961;42.640;23.380;2023-07-13T07:16:20;94396.91;;;27.24;61.89
11808;BME280;5961;42.640;23.380;2023-07-13T07:18:47;94408.06;;;27.30;61.04
11808;BME280;5961;42.640;23.380;2023-07-13T07:21:14;94397.50;;;27.32;60.09
11808;BME280;5961;42.640;23.380;2023-07-13T07:23:42;94398.50;;;27.38;59.55
11808;BME280;5961;42.640;23.380;2023-07-13T07:26:09;94382.06;;;27.25;59.63
11808;BME280;5961;42.640;23.380;2023-07-13T07:28:37;94396.69;;;27.47;58.76
11808;BME280;5961;42.640;23.380;2023-07-13T07:31:03;94396.28;;;27.49;58.85
11808;BME280;5961;42.640;23.380;2023-07-13T07:33:30;94393.34;;;27.56;59.22
11808;BME280;5961;42.640;23.380;2023-07-13T07:35:57;94403.28;;;27.62;59.66
11808;BME280;5961;42.640;23.380;2023-07-13T07:38:23;94398.19;;;27.64;57.25
11808;BME280;5961;42.640;23.380;2023-07-13T07:40:52;94384.09;;;27.66;57.54
11808;BME280;5961;42.640;23.380;2023-07-13T07:43:19;94381.94;;;27.73;57.47
11808;BME280;5961;42.640;23.380;2023-07-13T07:45:46;94383.81;;;27.76;58.46
11808;BME280;5961;42.640;23.380;2023-07-13T07:48:12;94378.66;;;27.78;57.10
11808;BME280;5961;42.640;23.380;2023-07-13T07:50:39;94382.84;;;27.83;55.17
11808;BME280;5961;42.640;23.380;2023-07-13T07:53:06;94370.16;;;27.76;56.51
11808;BME280;5961;42.640;23.380;2023-07-13T07:55:35;94369.06;;;27.87;57.82
11808;BME280;5961;42.640;23.380;2023-07-13T07:58:05;94376.06;;;27.88;57.85
11808;BME280;5961;42.640;23.380;2023-07-13T08:00:31;94382.97;;;27.92;58.41
11808;BME280;5961;42.640;23.380;2023-07-13T08:02:58;94379.38;;;27.95;58.69
11808;BME280;5961;42.640;23.380;2023-07-13T08:05:25;94371.59;;;27.94;58.62
11808;BME280;5961;42.640;23.380;2023-07-13T08:07:52;94365.25;;;27.97;59.50
11808;BME280;5961;42.640;23.380;2023-07-13T08:10:19;94364.38;;;28.00;59.60
11808;BME280;5961;42.640;23.380;2023-07-13T08:12:46;94352.59;;;28.03;59.52
11808;BME280;5961;42.640;23.380;2023-07-13T08:15:16;94341.84;;;27.96;59.75
11808;BME280;5961;42.640;23.380;2023-07-13T08:17:43;94351.09;;;28.14;60.28
11808;BME280;5961;42.640;23.380;2023-07-13T08:20:10;94351.44;;;28.16;59.46
11808;BME280;5961;42.640;23.380;2023-07-13T08:22:37;94354.28;;;28.25;59.92
11808;BME280;5961;42.640;23.380;2023-07-13T08:25:04;94352.09;;;28.33;59.74
11808;BME280;5961;42.640;23.380;2023-07-13T08:27:31;94348.03;;;28.38;59.77
11808;BME280;5961;42.640;23.380;2023-07-13T08:29:58;94347.50;;;28.43;58.97
11808;BME280;5961;42.640;23.380;2023-07-13T08:32:26;94332.59;;;28.44;58.66
11808;BME280;5961;42.640;23.380;2023-07-13T08:34:52;94345.94;;;28.54;58.96
11808;BME280;5961;42.640;23.380;2023-07-13T08:37:19;94334.13;;;28.57;58.14
11808;BME280;5961;42.640;23.380;2023-07-13T08:39:46;94340.56;;;28.63;57.04
11808;BME280;5961;42.640;23.380;2023-07-13T08:42:18;94330.31;;;28.67;56.49
11808;BME280;5961;42.640;23.380;2023-07-13T08:44:57;94334.78;;;28.74;56.59
11808;BME280;5961;42.640;23.380;2023-07-13T08:47:30;94330.63;;;28.82;57.49
11808;BME280;5961;42.640;23.380;2023-07-13T08:49:58;94320.44;;;28.82;56.45
11808;BME280;5961;42.640;23.380;2023-07-13T08:52:31;94319.22;;;28.83;55.96
11808;BME280;5961;42.640;23.380;2023-07-13T08:55:04;94328.59;;;28.95;55.76
11808;BME280;5961;42.640;23.380;2023-07-13T08:57:34;94338.53;;;29.02;55.33
11808;BME280;5961;42.640;23.380;2023-07-13T09:00:01;94339.50;;;29.08;55.28
11808;BME280;5961;42.640;23.380;2023-07-13T09:02:41;94324.72;;;29.05;55.54
11808;BME280;5961;42.640;23.380;2023-07-13T09:05:12;94345.69;;;29.21;55.28
11808;BME280;5961;42.640;23.380;2023-07-13T09:07:55;94344.50;;;29.22;54.97
11808;BME280;5961;42.640;23.380;2023-07-13T09:10:27;94349.53;;;29.23;55.34
11808;BME280;5961;42.640;23.380;2023-07-13T09:13:04;94363.31;;;29.32;53.79
11808;BME280;5961;42.640;23.380;2023-07-13T09:15:38;94373.25;;;29.39;52.16
11808;BME280;5961;42.640;23.380;2023-07-13T09:18:11;94370.72;;;29.45;52.12
11808;BME280;5961;42.640;23.380;2023-07-13T09:20:46;94375.19;;;29.51;52.67
11808;BME280;5961;42.640;23.380;2023-07-13T09:23:17;94373.41;;;29.57;52.72
11808;BME280;5961;42.640;23.380;2023-07-13T09:25:47;94363.72;;;29.65;53.22
11808;BME280;5961;42.640;23.380;2023-07-13T09:28:19;94373.78;;;29.68;51.48
11808;BME280;5961;42.640;23.380;2023-07-13T09:30:51;94371.09;;;29.77;51.56
11808;BME280;5961;42.640;23.380;2023-07-13T09:33:21;94370.19;;;29.80;51.20
11808;BME280;5961;42.640;23.380;2023-07-13T09:35:48;94372.25;;;29.89;50.22
11808;BME280;5961;42.640;23.380;2023-07-13T09:38:16;94373.66;;;29.93;49.70
11808;BME280;5961;42.640;23.380;2023-07-13T09:40:54;94372.78;;;29.97;50.06
11808;BME280;5961;42.640;23.380;2023-07-13T09:43:24;94368.53;;;30.05;50.28
11808;BME280;5961;42.640;23.380;2023-07-13T09:45:52;94361.41;;;30.07;50.30
11808;BME280;5961;42.640;23.380;2023-07-13T09:48:21;94355.34;;;30.12;49.46
11808;BME280;5961;42.640;23.380;2023-07-13T09:50:54;94364.06;;;30.20;49.26
11808;BME280;5961;42.640;23.380;2023-07-13T09:53:22;94343.97;;;30.23;48.47
11808;BME280;5961;42.640;23.380;2023-07-13T09:55:49;94349.47;;;30.32;49.20
11808;BME280;5961;42.640;23.380;2023-07-13T09:58:18;94342.19;;;30.38;48.14
11808;BME280;5961;42.640;23.380;2023-07-13T10:00:54;94338.91;;;30.43;48.58
11808;BME280;5961;42.640;23.380;2023-07-13T10:03:27;94344.09;;;30.50;49.84
11808;BME280;5961;42.640;23.380;2023-07-13T10:06:01;94340.78;;;30.55;49.39
11808;BME280;5961;42.640;23.380;2023-07-13T10:08:31;94331.63;;;30.58;48.26
11808;BME280;5961;42.640;23.380;2023-07-13T10:11:09;94328.59;;;30.65;48.12
11808;BME280;5961;42.640;23.380;2023-07-13T10:13:41;94316.09;;;30.64;47.45
11808;BME280;5961;42.640;23.380;2023-07-13T10:16:09;94324.34;;;30.73;47.49
11808;BME280;5961;42.640;23.380;2023-07-13T10:18:42;94322.69;;;30.76;48.29
11808;BME280;5961;42.640;23.380;2023-07-13T10:21:15;94325.44;;;30.85;48.32
11808;BME280;5961;42.640;23.380;2023-07-13T10:23:45;94329.25;;;30.87;47.96
11808;BME280;5961;42.640;23.380;2023-07-13T10:26:18;94322.75;;;30.94;47.62
11808;BME280;5961;42.640;23.380;2023-07-13T10:28:50;94307.63;;;30.98;47.36
11808;BME280;5961;42.640;23.380;2023-07-13T10:31:19;94309.03;;;31.03;47.86
11808;BME280;5961;42.640;23.380;2023-07-13T10:33:48;94305.50;;;31.12;49.43
11808;BME280;5961;42.640;23.380;2023-07-13T10:36:27;94305.19;;;31.19;48.75
11808;BME280;5961;42.640;23.380;2023-07-13T10:38:57;94304.91;;;31.26;48.01
11808;BME280;5961;42.640;23.380;2023-07-13T10:41:27;94306.09;;;31.34;47.96
11808;BME280;5961;42.640;23.380;2023-07-13T10:43:55;94286.88;;;31.34;47.56
11808;BME280;5961;42.640;23.380;2023-07-13T10:46:25;94253.34;;;31.21;45.32
11808;BME280;5961;42.640;23.380;2023-07-13T10:48:57;94287.97;;;31.55;45.61
11808;BME280;5961;42.640;23.380;2023-07-13T10:51:26;94285.78;;;31.68;46.65
11808;BME280;5961;42.640;23.380;2023-07-13T10:54:19;94284.38;;;31.81;45.75
11808;BME280;5961;42.640;23.380;2023-07-13T10:56:50;94240.75;;;31.65;40.53
11808;BME280;5961;42.640;23.380;2023-07-13T10:59:23;94278.84;;;31.99;40.74
11808;BME280;5961;42.640;23.380;2023-07-13T11:01:56;94269.03;;;32.08;42.63
11808;BME280;5961;42.640;23.380;2023-07-13T11:04:26;94257.28;;;32.07;44.65
11808;BME280;5961;42.640;23.380;2023-07-13T11:06:57;94274.94;;;32.24;43.51
11808;BME280;5961;42.640;23.380;2023-07-13T11:09:33;94267.72;;;32.36;42.52
11808;BME280;5961;42.640;23.380;2023-07-13T11:12:07;94267.94;;;32.47;43.40
11808;BME280;5961;42.640;23.380;2023-07-13T11:14:36;94262.41;;;32.56;42.59
11808;BME280;5961;42.640;23.380;2023-07-13T11:20:23;94254.63;;;32.78;41.37
11808;BME280;5961;42.640;23.380;2023-07-13T11:23:09;94195.72;;;32.61;40.45
11808;BME280;5961;42.640;23.380;2023-07-13T11:25:42;94249.53;;;33.00;40.89
11808;BME280;5961;42.640;23.380;2023-07-13T11:28:18;94251.03;;;33.10;39.44
11808;BME280;5961;42.640;23.380;2023-07-13T11:30:49;94238.72;;;33.21;39.28
11808;BME280;5961;42.640;23.380;2023-07-13T11:33:18;94236.34;;;33.28;38.31
11808;BME280;5961;42.640;23.380;2023-07-13T11:35:51;94238.81;;;33.41;38.07
11808;BME280;5961;42.640;23.380;2023-07-13T11:38:22;94235.97;;;33.50;38.97
11808;BME280;5961;42.640;23.380;2023-07-13T11:40:53;94225.34;;;33.57;39.05
11808;BME280;5961;42.640;23.380;2023-07-13T11:43:20;94240.38;;;33.71;37.82
11808;BME280;5961;42.640;23.380;2023-07-13T11:45:48;94227.91;;;33.76;36.79
11808;BME280;5961;42.640;23.380;2023-07-13T11:48:20;94231.03;;;33.83;36.20
11808;BME280;5961;42.640;23.380;2023-07-13T11:51:07;94231.22;;;33.94;37.38
11808;BME280;5961;42.640;23.380;2023-07-13T11:53:45;94232.91;;;34.06;36.76
11808;BME280;5961;42.640;23.380;2023-07-13T11:56:12;94227.59;;;34.17;37.32
11808;BME280;5961;42.640;23.380;2023-07-13T11:58:40;94217.66;;;34.26;35.44
11808;BME280;5961;42.640;23.380;2023-07-13T12:01:16;94223.13;;;34.40;33.74
11808;BME280;5961;42.640;23.380;2023-07-13T12:03:45;94212.47;;;34.48;34.07
11808;BME280;5961;42.640;23.380;2023-07-13T12:06:25;94208.31;;;34.58;34.40
11808;BME280;5961;42.640;23.380;2023-07-13T12:08:56;94197.16;;;34.67;32.55
11808;BME280;5961;42.640;23.380;2023-07-13T12:11:23;94190.66;;;34.70;32.47
11808;BME280;5961;42.640;23.380;2023-07-13T12:13:50;94171.91;;;34.54;31.48
11808;BME280;5961;42.640;23.380;2023-07-13T12:16:23;94207.50;;;34.92;30.44
11808;BME280;5961;42.640;23.380;2023-07-13T12:18:52;94190.72;;;34.96;31.12
11808;BME280;5961;42.640;23.380;2023-07-13T12:21:26;94201.72;;;35.10;32.05
11808;BME280;5961;42.640;23.380;2023-07-13T12:23:55;94196.03;;;35.19;32.43
11808;BME280;5961;42.640;23.380;2023-07-13T12:26:22;94188.81;;;35.28;32.14
11808;BME280;5961;42.640;23.380;2023-07-13T12:28:51;94187.41;;;35.38;30.92
11808;BME280;5961;42.640;23.380;2023-07-13T12:31:30;94174.13;;;35.42;31.26
11808;BME280;5961;42.640;23.380;2023-07-13T12:34:00;94181.22;;;35.48;30.27
11808;BME280;5961;42.640;23.380;2023-07-13T12:36:30;94170.91;;;35.49;29.84
11808;BME280;5961;42.640;23.380;2023-07-13T12:39:02;94173.53;;;35.58;31.48
11808;BME280;5961;42.640;23.380;2023-07-13T12:41:30;94172.13;;;35.68;31.08
11808;BME280;5961;42.640;23.380;2023-07-13T12:43:59;94171.91;;;35.71;30.31
11808;BME280;5961;42.640;23.380;2023-07-13T12:46:26;94147.94;;;35.63;31.12
11808;BME280;5961;42.640;23.380;2023-07-13T12:48:54;94157.66;;;35.84;30.21
11808;BME280;5961;42.640;23.380;2023-07-13T12:51:22;94155.22;;;35.97;30.88
11808;BME280;5961;42.640;23.380;2023-07-13T12:53:56;94154.50;;;36.02;30.83
11808;BME280;5961;42.640;23.380;2023-07-13T12:56:27;94150.81;;;36.11;29.36
11808;BME280;5961;42.640;23.380;2023-07-13T12:58:58;94163.69;;;36.19;29.80
11808;BME280;5961;42.640;23.380;2023-07-13T13:01:28;94151.63;;;36.22;28.46
11808;BME280;5961;42.640;23.380;2023-07-13T13:03:56;94162.00;;;36.39;28.48
11808;BME280;5961;42.640;23.380;2023-07-13T13:06:24;94146.19;;;36.45;29.30
11808;BME280;5961;42.640;23.380;2023-07-13T13:08:54;94132.09;;;36.43;28.38
11808;BME280;5961;42.640;23.380;2023-07-13T13:11:22;94146.06;;;36.65;28.22
11808;BME280;5961;42.640;23.380;2023-07-13T13:13:50;94149.31;;;36.69;27.77